createdAt,value
2023-12-09T00:01:43.378Z,5.37
2023-12-09T00:04:12.112Z,5.80
2023-12-09T00:06:47.551Z,5.87
2023-12-09T00:09:19.431Z,6.27
2023-12-09T00:11:48.080Z,5.43
2023-12-09T00:14:16.606Z,5.40
2023-12-09T00:16:45.290Z,5.77
2023-12-09T00:19:14.447Z,6.60
2023-12-09T00:21:43.096Z,7.70
2023-12-09T00:24:11.713Z,6.13
2023-12-09T00:26:41.535Z,6.07
2023-12-09T00:29:10.093Z,7.17
2023-12-09T00:31:38.505Z,5.40
2023-12-09T00:34:08.022Z,5.73
2023-12-09T00:36:36.924Z,6.10
2023-12-09T00:39:06.360Z,6.10
2023-12-09T00:41:34.897Z,6.60
2023-12-09T00:44:04.582Z,6.10
2023-12-09T00:46:33.136Z,5.50
2023-12-09T00:49:02.326Z,5.67
2023-12-09T00:51:31.051Z,6.13
2023-12-09T00:53:59.595Z,5.73
2023-12-09T00:56:34.310Z,5.73
2023-12-09T00:59:06.117Z,5.10
2023-12-09T01:01:35.744Z,5.30
2023-12-09T01:04:04.983Z,5.27
2023-12-09T01:06:33.929Z,5.63
2023-12-09T01:09:02.578Z,5.37
2023-12-09T01:11:31.108Z,6.00
2023-12-09T01:13:59.646Z,6.57
2023-12-09T01:16:29.484Z,6.20
2023-12-09T01:18:57.933Z,6.03
2023-12-09T01:21:26.439Z,5.53
2023-12-09T01:23:54.961Z,6.20
2023-12-09T01:26:23.470Z,6.10
2023-12-09T01:28:52.248Z,5.43
2023-12-09T01:31:20.665Z,5.83
2023-12-09T01:33:50.578Z,5.37
2023-12-09T01:36:19.286Z,5.97
2023-12-09T01:38:47.732Z,5.50
2023-12-09T01:41:16.145Z,6.10
2023-12-09T01:43:49.632Z,6.10
2023-12-09T01:46:19.684Z,5.43
2023-12-09T01:48:50.056Z,5.83
2023-12-09T01:51:19.788Z,6.07
2023-12-09T01:53:48.707Z,6.53
2023-12-09T01:56:18.973Z,4.97
2023-12-09T01:58:47.493Z,5.50
2023-12-09T02:01:16.221Z,6.10
2023-12-09T02:03:44.946Z,5.77
2023-12-09T02:06:14.685Z,5.27
2023-12-09T02:08:43.341Z,5.43
2023-12-09T02:11:19.824Z,6.10
2023-12-09T02:13:57.849Z,5.30
2023-12-09T02:16:31.742Z,6.40
2023-12-09T02:19:02.759Z,5.73
2023-12-09T02:21:32.711Z,4.93
2023-12-09T02:24:02.416Z,5.33
2023-12-09T02:26:31.095Z,5.20
2023-12-09T02:29:05.141Z,6.27
2023-12-09T02:31:36.805Z,6.07
2023-12-09T02:34:06.912Z,6.07
2023-12-09T02:36:37.021Z,5.80
2023-12-09T02:39:08.618Z,5.97
2023-12-09T02:41:37.678Z,5.10
2023-12-09T02:44:07.544Z,5.07
2023-12-09T02:46:36.030Z,4.83
2023-12-09T02:49:05.112Z,5.80
2023-12-09T02:51:33.846Z,5.00
2023-12-09T02:54:02.409Z,6.17
2023-12-09T02:56:32.101Z,5.10
2023-12-09T02:59:00.546Z,5.40
2023-12-09T03:01:29.132Z,5.47
2023-12-09T03:03:57.776Z,5.33
2023-12-09T03:06:26.267Z,5.30
2023-12-09T03:08:54.762Z,4.83
2023-12-09T03:11:31.445Z,5.40
2023-12-09T03:13:59.906Z,5.33
2023-12-09T03:16:28.315Z,5.03
2023-12-09T03:18:57.293Z,6.13
2023-12-09T03:21:25.843Z,5.97
2023-12-09T03:23:54.380Z,6.30
2023-12-09T03:26:22.963Z,5.97
2023-12-09T03:28:52.945Z,5.77
2023-12-09T03:31:22.456Z,5.83
2023-12-09T03:33:51.004Z,5.63
2023-12-09T03:36:19.488Z,6.13
2023-12-09T03:38:48.044Z,6.00
2023-12-09T03:41:16.563Z,5.53
2023-12-09T03:43:45.150Z,5.90
2023-12-09T03:46:16.688Z,4.73
2023-12-09T03:48:45.249Z,6.20
2023-12-09T03:51:13.812Z,5.83
2023-12-09T03:53:43.619Z,6.77
2023-12-09T03:56:12.917Z,6.90
2023-12-09T03:58:41.507Z,6.57
2023-12-09T04:01:10.374Z,7.27
2023-12-09T04:03:40.363Z,5.97
2023-12-09T04:06:09.227Z,6.27
2023-12-09T04:08:38.224Z,7.13
2023-12-09T04:11:07.280Z,5.77
2023-12-09T04:13:35.793Z,7.27
2023-12-09T04:16:03.844Z,6.37
2023-12-09T04:18:32.523Z,6.47
2023-12-09T04:21:02.409Z,6.40
2023-12-09T04:23:31.126Z,6.57
2023-12-09T04:25:59.518Z,6.37
2023-12-09T04:28:27.934Z,5.83
2023-12-09T04:30:56.414Z,6.13
2023-12-09T04:33:24.774Z,6.23
2023-12-09T04:35:53.394Z,6.23
2023-12-09T04:38:23.131Z,6.20
2023-12-09T04:40:51.525Z,6.23
2023-12-09T04:43:20.224Z,6.17
2023-12-09T04:45:48.639Z,6.07
2023-12-09T04:48:17.934Z,6.63
2023-12-09T04:50:46.891Z,6.70
2023-12-09T04:53:15.420Z,6.07
2023-12-09T04:55:45.428Z,5.43
2023-12-09T04:58:14.020Z,6.73
2023-12-09T05:00:42.720Z,6.83
2023-12-09T05:03:11.329Z,7.63
2023-12-09T05:05:39.880Z,6.23
2023-12-09T05:08:08.335Z,6.73
2023-12-09T05:10:36.753Z,6.40
2023-12-09T05:13:06.409Z,6.87
2023-12-09T05:15:35.050Z,7.93
2023-12-09T05:18:03.827Z,6.10
2023-12-09T05:20:32.639Z,5.73
2023-12-09T05:23:01.136Z,6.83
2023-12-09T05:25:29.620Z,7.03
2023-12-09T05:27:57.918Z,7.17
2023-12-09T05:30:28.061Z,5.00
2023-12-09T05:32:55.811Z,6.83
2023-12-09T05:35:24.634Z,6.63
2023-12-09T05:37:53.229Z,7.00
2023-12-09T05:40:21.694Z,6.60
2023-12-09T05:42:50.225Z,6.57
2023-12-09T05:45:19.109Z,6.53
2023-12-09T05:47:48.924Z,6.53
2023-12-09T05:50:17.373Z,6.60
2023-12-09T05:52:45.911Z,5.90
2023-12-09T05:55:17.881Z,5.73
2023-12-09T05:57:46.562Z,6.77
2023-12-09T06:00:15.527Z,5.53
2023-12-09T06:02:44.008Z,6.93
2023-12-09T06:05:13.826Z,6.13
2023-12-09T06:07:42.327Z,5.77
2023-12-09T06:10:13.809Z,6.40
2023-12-09T06:12:43.950Z,7.23
2023-12-09T06:15:13.362Z,6.20
2023-12-09T06:17:41.836Z,6.57
2023-12-09T06:20:11.156Z,6.70
2023-12-09T06:22:40.925Z,5.80
2023-12-09T06:25:10.521Z,6.87
2023-12-09T06:27:39.331Z,6.77
2023-12-09T06:30:11.029Z,6.43
2023-12-09T06:32:39.714Z,6.87
2023-12-09T06:35:08.518Z,5.43
2023-12-09T06:37:37.255Z,5.50
2023-12-09T06:40:08.260Z,6.13
2023-12-09T06:42:38.402Z,6.60
2023-12-09T06:45:07.842Z,6.53
2023-12-09T06:47:36.723Z,5.43
2023-12-09T06:50:07.581Z,6.60
2023-12-09T06:52:36.211Z,6.73
2023-12-09T06:55:04.894Z,8.10
2023-12-09T06:57:34.617Z,6.93
2023-12-09T07:00:06.411Z,7.33
2023-12-09T07:02:44.627Z,7.00
2023-12-09T07:05:21.877Z,7.83
2023-12-09T07:07:52.101Z,7.30
2023-12-09T07:10:21.192Z,8.13
2023-12-09T07:12:50.974Z,7.13
2023-12-09T07:15:19.575Z,7.10
2023-12-09T07:17:48.207Z,6.73
2023-12-09T07:20:16.810Z,8.53
2023-12-09T07:22:45.506Z,7.43
2023-12-09T07:25:14.174Z,8.47
2023-12-09T07:27:42.694Z,8.63
2023-12-09T07:30:18.294Z,6.33
2023-12-09T07:32:46.741Z,7.10
2023-12-09T07:35:18.266Z,7.40
2023-12-09T07:37:48.305Z,8.05
2023-12-09T07:40:17.369Z,7.03
2023-12-09T07:42:46.085Z,7.87
2023-12-09T07:45:15.903Z,8.70
2023-12-09T07:47:44.263Z,8.27
2023-12-09T07:50:13.371Z,5.67
2023-12-09T07:52:42.160Z,7.20
2023-12-09T07:55:11.696Z,6.95
2023-12-09T07:57:40.312Z,8.07
2023-12-09T08:00:09.827Z,8.68
2023-12-09T08:02:40.042Z,8.60
2023-12-09T08:05:08.776Z,8.00
2023-12-09T08:07:37.366Z,7.40
2023-12-09T08:10:14.448Z,8.00
2023-12-09T08:12:50.367Z,7.30
2023-12-09T08:15:26.468Z,7.07
2023-12-09T08:17:59.094Z,8.33
2023-12-09T08:20:32.413Z,8.00
2023-12-09T08:23:03.969Z,7.53
2023-12-09T08:25:37.234Z,7.83
2023-12-09T08:28:09.786Z,5.70
2023-12-09T08:30:43.395Z,7.57
2023-12-09T08:33:16.379Z,6.87
2023-12-09T08:35:49.376Z,7.10
2023-12-09T08:38:20.841Z,7.30
2023-12-09T08:40:54.160Z,5.50
2023-12-09T08:43:26.185Z,6.13
2023-12-09T08:45:54.821Z,6.40
2023-12-09T08:48:25.700Z,5.97
2023-12-09T08:50:57.285Z,5.63
2023-12-09T08:53:28.830Z,5.67
2023-12-09T08:56:00.393Z,4.90
2023-12-09T08:58:31.937Z,5.10
2023-12-09T09:01:03.671Z,5.07
2023-12-09T09:03:36.493Z,4.97
2023-12-09T09:06:08.322Z,5.80
2023-12-09T09:08:39.774Z,4.93
2023-12-09T09:11:13.520Z,5.25
2023-12-09T09:13:44.943Z,5.28
2023-12-09T09:16:18.274Z,4.53
2023-12-09T09:18:54.084Z,4.43
2023-12-09T09:21:30.326Z,4.28
2023-12-09T09:24:05.107Z,3.80
2023-12-09T09:26:41.185Z,4.00
2023-12-09T09:29:17.615Z,3.95
2023-12-09T09:31:53.566Z,3.00
2023-12-09T09:34:29.372Z,3.72
2023-12-09T09:37:02.439Z,3.28
2023-12-09T09:39:36.264Z,3.55
2023-12-09T09:42:19.393Z,3.38
2023-12-09T09:45:06.523Z,3.63
2023-12-09T09:47:41.405Z,3.38
2023-12-09T09:50:16.887Z,1.92
2023-12-09T09:52:51.811Z,3.35
2023-12-09T09:55:24.305Z,2.67
2023-12-09T09:57:54.493Z,2.25
2023-12-09T10:00:25.214Z,1.75
2023-12-09T10:02:57.293Z,2.20
2023-12-09T10:05:29.214Z,1.60
2023-12-09T10:07:59.070Z,1.70
2023-12-09T10:10:29.234Z,2.28
2023-12-09T10:12:59.122Z,2.05
2023-12-09T10:15:30.645Z,2.25
2023-12-09T10:18:04.578Z,2.20
2023-12-09T10:20:40.147Z,1.73
2023-12-09T10:23:10.975Z,1.58
2023-12-09T10:25:42.418Z,1.60
2023-12-09T10:28:13.028Z,1.80
2023-12-09T10:30:48.133Z,2.20
2023-12-09T10:33:21.580Z,2.25
2023-12-09T10:35:58.465Z,1.13
2023-12-09T10:38:32.984Z,1.70
2023-12-09T10:41:10.735Z,1.60
2023-12-09T10:43:45.300Z,1.50
2023-12-09T10:46:21.480Z,1.80
2023-12-09T10:48:56.172Z,1.75
2023-12-09T10:51:33.463Z,0.90
2023-12-09T10:54:08.211Z,1.23
2023-12-09T10:56:42.859Z,1.77
2023-12-09T10:59:17.052Z,1.48
2023-12-09T11:01:52.031Z,1.10
2023-12-09T11:04:25.090Z,1.50
2023-12-09T11:07:05.249Z,1.35
2023-12-09T11:09:41.421Z,1.30
2023-12-09T11:12:10.499Z,1.45
2023-12-09T11:14:39.830Z,1.20
2023-12-09T11:17:34.820Z,1.40
2023-12-09T11:20:11.091Z,1.73
2023-12-09T11:22:42.357Z,1.45
2023-12-09T11:25:13.365Z,1.17
2023-12-09T11:27:41.804Z,1.23
2023-12-09T11:30:32.877Z,1.48
2023-12-09T11:33:03.435Z,1.27
2023-12-09T11:35:34.120Z,1.20
2023-12-09T11:38:07.670Z,1.05
2023-12-09T11:40:38.537Z,1.20
2023-12-09T11:43:09.511Z,1.30
2023-12-09T11:45:39.966Z,1.10
2023-12-09T11:48:10.701Z,1.00
2023-12-09T11:50:48.049Z,1.33
2023-12-09T11:53:23.692Z,1.17
2023-12-09T11:55:59.946Z,1.05
2023-12-09T11:58:32.969Z,1.00
2023-12-09T12:01:07.860Z,0.90
2023-12-09T12:03:40.924Z,0.93
2023-12-09T12:06:15.785Z,0.70
2023-12-09T12:08:52.269Z,1.35
2023-12-09T12:11:25.834Z,1.20
2023-12-09T12:13:56.714Z,1.25
2023-12-09T12:16:28.380Z,1.30
2023-12-09T12:18:58.537Z,1.50
2023-12-09T12:21:30.175Z,1.20
2023-12-09T12:24:06.973Z,0.80
2023-12-09T12:26:38.573Z,0.70
2023-12-09T12:29:09.960Z,0.70
2023-12-09T12:31:43.117Z,0.63
2023-12-09T12:34:21.813Z,1.08
2023-12-09T12:36:55.037Z,0.60
2023-12-09T12:39:28.120Z,0.50
2023-12-09T12:42:02.281Z,0.55
2023-12-09T12:44:33.792Z,0.50
2023-12-09T12:47:03.949Z,0.57
2023-12-09T12:49:38.712Z,0.60
2023-12-09T12:52:12.216Z,0.40
2023-12-09T12:54:46.420Z,0.73
2023-12-09T12:57:20.776Z,0.35
2023-12-09T12:59:53.851Z,0.50
2023-12-09T13:02:26.976Z,0.60
2023-12-09T13:04:58.762Z,0.70
2023-12-09T13:07:30.397Z,0.50
2023-12-09T13:10:05.008Z,0.80
2023-12-09T13:12:37.153Z,0.68
2023-12-09T13:15:09.851Z,0.52
2023-12-09T13:17:41.948Z,0.65
2023-12-09T13:20:12.969Z,0.70
2023-12-09T13:22:43.139Z,0.55
2023-12-09T13:25:17.795Z,0.60
2023-12-09T13:27:48.676Z,1.73
2023-12-09T13:30:18.999Z,3.55
2023-12-09T13:32:49.067Z,1.98
2023-12-09T13:35:19.870Z,1.00
2023-12-09T13:37:49.942Z,0.80
2023-12-09T13:40:21.458Z,0.73
2023-12-09T13:42:51.545Z,0.80
2023-12-09T13:45:22.792Z,0.65
2023-12-09T13:47:53.075Z,0.85
2023-12-09T13:50:27.679Z,0.75
2023-12-09T13:53:01.248Z,0.90
2023-12-09T13:55:36.015Z,1.02
2023-12-09T13:58:09.086Z,1.60
2023-12-09T14:00:42.313Z,1.73
2023-12-09T14:03:14.133Z,1.00
2023-12-09T14:05:47.440Z,0.70
2023-12-09T14:08:19.668Z,0.90
2023-12-09T14:10:52.460Z,0.80
2023-12-09T14:13:22.924Z,1.00
2023-12-09T14:15:54.560Z,1.15
2023-12-09T14:18:24.719Z,1.30
2023-12-09T14:20:53.821Z,1.10
2023-12-09T14:23:22.398Z,1.20
2023-12-09T14:25:52.500Z,1.00
2023-12-09T14:28:21.053Z,1.20
2023-12-09T14:30:53.343Z,0.93
2023-12-09T14:33:25.186Z,1.27
2023-12-09T14:35:57.102Z,0.90
2023-12-09T14:38:27.373Z,0.80
2023-12-09T14:40:58.983Z,0.85
2023-12-09T14:43:29.322Z,1.10
2023-12-09T14:45:59.455Z,1.10
2023-12-09T14:48:32.632Z,4.28
2023-12-09T14:51:03.207Z,2.97
2023-12-09T14:53:34.322Z,2.67
2023-12-09T14:56:05.670Z,3.30
2023-12-09T14:58:39.575Z,3.65
2023-12-09T15:01:11.361Z,4.05
2023-12-09T15:03:45.818Z,5.30
2023-12-09T15:06:17.301Z,4.50
2023-12-09T15:08:53.424Z,5.53
2023-12-09T15:11:30.773Z,5.53
2023-12-09T15:14:07.041Z,6.18
2023-12-09T15:16:41.528Z,6.65
2023-12-09T15:19:17.825Z,5.57
2023-12-09T15:21:49.422Z,5.80
2023-12-09T15:24:26.220Z,3.65
2023-12-09T15:26:59.077Z,5.45
2023-12-09T15:29:34.063Z,6.10
2023-12-09T15:32:05.572Z,6.07
2023-12-09T15:34:38.682Z,5.20
2023-12-09T15:37:10.251Z,5.78
2023-12-09T15:39:43.366Z,5.55
2023-12-09T15:42:16.331Z,5.90
2023-12-09T15:44:47.189Z,5.35
2023-12-09T15:47:17.395Z,6.43
2023-12-09T15:49:47.450Z,5.95
2023-12-09T15:52:17.562Z,5.72
2023-12-09T15:54:47.812Z,6.17
2023-12-09T15:57:17.693Z,6.20
2023-12-09T15:59:49.559Z,5.38
2023-12-09T16:02:18.042Z,6.00
2023-12-09T16:04:46.645Z,5.00
2023-12-09T16:07:15.572Z,4.70
2023-12-09T16:09:51.781Z,5.28
2023-12-09T16:12:22.716Z,5.10
2023-12-09T16:14:54.857Z,4.57
2023-12-09T16:17:23.637Z,5.97
2023-12-09T16:19:53.842Z,5.37
2023-12-09T16:22:23.909Z,4.80
2023-12-09T16:24:55.636Z,5.40
2023-12-09T16:27:27.744Z,5.20
2023-12-09T16:30:00.808Z,5.28
2023-12-09T16:32:32.764Z,6.28
2023-12-09T16:35:06.145Z,6.18
2023-12-09T16:37:38.848Z,6.13
2023-12-09T16:40:16.201Z,7.30
2023-12-09T16:42:47.589Z,7.83
2023-12-09T16:45:19.235Z,8.47
2023-12-09T16:47:49.471Z,7.90
2023-12-09T16:50:21.281Z,8.17
2023-12-09T16:52:51.406Z,9.90
2023-12-09T16:55:23.019Z,9.87
2023-12-09T16:57:54.142Z,8.70
2023-12-09T17:00:25.956Z,8.80
2023-12-09T17:02:56.118Z,7.97
2023-12-09T17:05:27.790Z,8.43
2023-12-09T17:07:58.058Z,7.73
2023-12-09T17:10:30.243Z,9.83
2023-12-09T17:13:00.566Z,8.23
2023-12-09T17:15:29.442Z,8.80
2023-12-09T17:17:59.170Z,6.93
2023-12-09T17:20:32.558Z,7.47
2023-12-09T17:23:05.509Z,7.33
2023-12-09T17:25:38.629Z,7.40
2023-12-09T17:28:12.857Z,6.83
2023-12-09T17:30:46.004Z,6.90
2023-12-09T17:33:19.316Z,7.07
2023-12-09T17:35:52.383Z,7.67
2023-12-09T17:38:25.387Z,8.00
2023-12-09T17:40:59.031Z,7.33
2023-12-09T17:43:33.280Z,6.60
2023-12-09T17:46:06.361Z,6.83
2023-12-09T17:48:39.085Z,7.90
2023-12-09T17:51:12.280Z,6.40
2023-12-09T17:53:43.888Z,6.13
2023-12-09T17:56:17.111Z,6.43
2023-12-09T17:58:55.610Z,6.63
2023-12-09T18:01:30.832Z,8.13
2023-12-09T18:04:01.364Z,8.50
2023-12-09T18:06:32.029Z,8.03
2023-12-09T18:09:00.662Z,7.33
2023-12-09T18:11:29.489Z,7.27
2023-12-09T18:13:59.334Z,7.20
2023-12-09T18:16:27.139Z,9.00
2023-12-09T18:18:58.612Z,7.83
2023-12-09T18:21:30.176Z,9.77
2023-12-09T18:23:58.975Z,8.27
2023-12-09T18:26:27.953Z,9.67
2023-12-09T18:28:56.549Z,16.93
2023-12-09T18:31:26.279Z,8.03
2023-12-09T18:33:54.920Z,9.50
2023-12-09T18:36:23.544Z,9.30
2023-12-09T18:38:56.813Z,9.23
2023-12-09T18:41:28.317Z,7.63
2023-12-09T18:44:01.376Z,7.17
2023-12-09T18:46:34.382Z,9.77
2023-12-09T18:49:07.558Z,9.43
2023-12-09T18:51:39.181Z,10.10
2023-12-09T18:54:10.836Z,9.43
2023-12-09T18:56:40.923Z,7.93
2023-12-09T18:59:17.584Z,12.03
2023-12-09T19:02:01.604Z,8.27
2023-12-09T19:04:42.894Z,8.10
2023-12-09T19:07:16.255Z,9.57
2023-12-09T19:09:52.505Z,8.37
2023-12-09T19:12:25.886Z,8.57
2023-12-09T19:15:00.812Z,10.53
2023-12-09T19:17:35.331Z,10.13
2023-12-09T19:20:08.364Z,8.60
2023-12-09T19:22:39.856Z,9.60
2023-12-09T19:25:11.654Z,10.00
2023-12-09T19:27:43.520Z,8.40
2023-12-09T19:30:17.411Z,8.77
2023-12-09T19:32:51.710Z,10.57
2023-12-09T19:35:22.158Z,10.80
2023-12-09T19:37:51.122Z,9.27
2023-12-09T19:40:19.746Z,10.43
2023-12-09T19:42:48.223Z,9.60
2023-12-09T19:45:16.922Z,9.70
2023-12-09T19:47:45.508Z,8.93
2023-12-09T19:50:19.705Z,11.27
2023-12-09T19:52:50.795Z,10.63
2023-12-09T19:55:19.330Z,10.03
2023-12-09T19:57:48.190Z,10.40
2023-12-09T20:00:16.963Z,9.57
2023-12-09T20:02:47.937Z,10.90
2023-12-09T20:05:19.303Z,9.90
2023-12-09T20:07:47.987Z,9.50
2023-12-09T20:10:19.809Z,8.23
2023-12-09T20:12:49.764Z,9.83
2023-12-09T20:15:18.488Z,7.63
2023-12-09T20:17:47.150Z,7.07
2023-12-09T20:20:15.789Z,10.20
2023-12-09T20:22:45.535Z,9.97
2023-12-09T20:25:14.781Z,8.27
2023-12-09T20:27:43.448Z,10.10
2023-12-09T20:30:14.315Z,8.10
2023-12-09T20:32:43.354Z,7.07
2023-12-09T20:35:12.187Z,9.10
2023-12-09T20:37:40.634Z,7.50
2023-12-09T20:40:11.358Z,8.27
2023-12-09T20:42:41.120Z,7.23
2023-12-09T20:45:10.077Z,8.40
2023-12-09T20:47:40.642Z,7.83
2023-12-09T20:50:14.925Z,7.27
2023-12-09T20:52:45.069Z,8.03
2023-12-09T20:55:17.466Z,7.77
2023-12-09T20:57:47.824Z,7.90
2023-12-09T21:00:18.752Z,7.63
2023-12-09T21:02:48.943Z,9.53
2023-12-09T21:05:19.529Z,8.63
2023-12-09T21:07:48.456Z,9.77
2023-12-09T21:10:21.679Z,8.87
2023-12-09T21:12:52.966Z,9.20
2023-12-09T21:15:21.996Z,9.07
2023-12-09T21:17:50.501Z,8.30
2023-12-09T21:20:19.623Z,8.00
2023-12-09T21:22:48.427Z,7.63
2023-12-09T21:25:18.367Z,8.47
2023-12-09T21:27:46.899Z,8.73
2023-12-09T21:30:19.096Z,7.43
2023-12-09T21:32:50.703Z,8.60
2023-12-09T21:35:20.837Z,10.20
2023-12-09T21:37:49.318Z,8.87
2023-12-09T21:40:20.897Z,10.53
2023-12-09T21:42:51.059Z,9.90
2023-12-09T21:45:21.950Z,9.23
2023-12-09T21:47:55.475Z,10.17
2023-12-09T21:50:29.413Z,8.93
2023-12-09T21:53:01.001Z,8.67
2023-12-09T21:55:35.603Z,10.03
2023-12-09T21:58:06.823Z,7.13
2023-12-09T22:00:37.624Z,9.47
2023-12-09T22:03:06.226Z,7.70
2023-12-09T22:05:35.531Z,11.13
2023-12-09T22:08:04.128Z,9.97
2023-12-09T22:10:37.947Z,7.37
2023-12-09T22:13:11.113Z,10.13
2023-12-09T22:15:42.433Z,9.33
2023-12-09T22:18:14.180Z,9.10
2023-12-09T22:20:42.761Z,8.90
2023-12-09T22:23:11.199Z,7.00
2023-12-09T22:25:40.915Z,9.60
2023-12-09T22:28:09.439Z,10.07
2023-12-09T22:30:38.710Z,9.00
2023-12-09T22:33:07.508Z,9.50
2023-12-09T22:35:36.193Z,9.27
2023-12-09T22:38:04.918Z,8.63
2023-12-09T22:40:35.004Z,7.87
2023-12-09T22:43:04.945Z,8.07
2023-12-09T22:45:34.023Z,7.23
2023-12-09T22:48:03.618Z,7.50
2023-12-09T22:50:35.509Z,6.20
2023-12-09T22:53:04.060Z,7.40
2023-12-09T22:55:34.005Z,6.37
2023-12-09T22:58:02.624Z,6.57
2023-12-09T23:00:34.360Z,6.17
2023-12-09T23:03:04.312Z,6.93
2023-12-09T23:05:33.774Z,8.70
2023-12-09T23:08:02.262Z,7.53
2023-12-09T23:10:33.874Z,8.83
2023-12-09T23:13:03.984Z,9.37
2023-12-09T23:15:36.821Z,7.20
2023-12-09T23:18:07.449Z,7.03
2023-12-09T23:20:37.613Z,7.97
2023-12-09T23:23:06.125Z,8.93
2023-12-09T23:25:34.674Z,7.60
2023-12-09T23:28:04.374Z,6.07
2023-12-09T23:30:36.549Z,6.77
2023-12-09T23:33:05.876Z,6.10
2023-12-09T23:35:34.753Z,5.70
2023-12-09T23:38:03.557Z,5.83
2023-12-09T23:40:32.385Z,6.50
2023-12-09T23:43:00.966Z,6.87
2023-12-09T23:45:29.546Z,7.97
2023-12-09T23:47:59.528Z,6.37
2023-12-09T23:50:28.117Z,7.20
2023-12-09T23:52:56.697Z,5.70
2023-12-09T23:55:25.201Z,6.83
2023-12-09T23:57:53.798Z,6.70
